WJA604 CYMM-CYEG
Flight info
| Callsign | WJA604 |
|---|---|
| Flight time | 0h 38m |
| Altitude | 32000 |
| Route | YMM DCT CACHO DCT RESAX RESAX1 |
| Aircraft | B738/M-SDE2E3FGHIRWXY/LB1 |
Departure
| Time | 2026-04-29 01:23 |
|---|---|
| Airport | Fort McMurray International Airport (CYMM) |
Arrival
| Time | 2026-04-29 02:01 |
|---|---|
| Airport | Edmonton International Airport (CYEG) |
| Time | Latitude | Longitude | Altitude | Speed | Heading |
|---|---|---|---|---|---|
| 2026-04-29 01:08 | 56.65010 | -111.22881 | 1215 ft | 0 kts | 269° |
| 2026-04-29 01:15 | 56.65010 | -111.22880 | 1215 ft | 1 kts | 269° |
| 2026-04-29 01:15 | 56.65010 | -111.22839 | 1215 ft | 4 kts | 269° |
| 2026-04-29 01:15 | 56.65011 | -111.22790 | 1215 ft | 4 kts | 258° |
| 2026-04-29 01:15 | 56.65021 | -111.22749 | 1215 ft | 4 kts | 218° |
| 2026-04-29 01:16 | 56.65039 | -111.22734 | 1215 ft | 1 kts | 180° |
| 2026-04-29 01:16 | 56.65040 | -111.22734 | 1215 ft | 1 kts | 180° |
| 2026-04-29 01:18 | 56.65011 | -111.22734 | 1215 ft | 11 kts | 178° |
| 2026-04-29 01:18 | 56.64929 | -111.22673 | 1215 ft | 12 kts | 109° |
| 2026-04-29 01:19 | 56.64922 | -111.22563 | 1215 ft | 7 kts | 91° |
| 2026-04-29 01:19 | 56.64967 | -111.22487 | 1215 ft | 18 kts | 2° |
| 2026-04-29 01:19 | 56.65097 | -111.22491 | 1215 ft | 18 kts | 359° |
| 2026-04-29 01:19 | 56.65163 | -111.22362 | 1215 ft | 16 kts | 88° |
| 2026-04-29 01:20 | 56.65164 | -111.22073 | 1214 ft | 31 kts | 90° |
| 2026-04-29 01:20 | 56.65165 | -111.21656 | 1212 ft | 33 kts | 89° |
| 2026-04-29 01:20 | 56.65165 | -111.21245 | 1210 ft | 32 kts | 91° |
| 2026-04-29 01:20 | 56.65162 | -111.20843 | 1209 ft | 32 kts | 89° |
| 2026-04-29 01:21 | 56.65181 | -111.20515 | 1207 ft | 16 kts | 44° |
| 2026-04-29 01:21 | 56.65221 | -111.20490 | 1207 ft | 0 kts | 358° |
| 2026-04-29 01:21 | 56.65265 | -111.20491 | 1207 ft | 15 kts | 0° |
| 2026-04-29 01:21 | 56.65320 | -111.20585 | 1206 ft | 11 kts | 273° |
| 2026-04-29 01:22 | 56.65321 | -111.20716 | 1206 ft | 11 kts | 270° |
| 2026-04-29 01:22 | 56.65319 | -111.21220 | 1206 ft | 77 kts | 269° |
| 2026-04-29 01:22 | 56.65318 | -111.22623 | 1207 ft | 143 kts | 270° |
| 2026-04-29 01:22 | 56.65358 | -111.24688 | 1476 ft | 173 kts | 271° |
| 2026-04-29 01:23 | 56.65373 | -111.26909 | 2165 ft | 190 kts | 270° |
| 2026-04-29 01:23 | 56.65356 | -111.29507 | 2567 ft | 211 kts | 270° |
| 2026-04-29 01:23 | 56.65331 | -111.32213 | 3196 ft | 219 kts | 270° |
| 2026-04-29 01:23 | 56.65046 | -111.34965 | 3829 ft | 231 kts | 239° |
| 2026-04-29 01:24 | 56.63893 | -111.37072 | 4434 ft | 248 kts | 215° |
| 2026-04-29 01:24 | 56.62254 | -111.38467 | 5044 ft | 266 kts | 201° |
| 2026-04-29 01:24 | 56.60538 | -111.39612 | 6107 ft | 261 kts | 202° |
| 2026-04-29 01:24 | 56.58826 | -111.40760 | 6832 ft | 271 kts | 202° |
| 2026-04-29 01:25 | 56.57034 | -111.41980 | 7560 ft | 279 kts | 202° |
| 2026-04-29 01:25 | 56.55199 | -111.43248 | 8347 ft | 285 kts | 202° |
| 2026-04-29 01:25 | 56.53325 | -111.44559 | 9136 ft | 292 kts | 202° |
| 2026-04-29 01:25 | 56.51414 | -111.45906 | 9925 ft | 298 kts | 202° |
| 2026-04-29 01:26 | 56.49448 | -111.47302 | 10461 ft | 313 kts | 203° |
| 2026-04-29 01:26 | 56.47336 | -111.48810 | 10653 ft | 338 kts | 203° |
| 2026-04-29 01:26 | 56.45072 | -111.50431 | 10846 ft | 362 kts | 203° |
| 2026-04-29 01:26 | 56.42682 | -111.52143 | 11243 ft | 376 kts | 203° |
| 2026-04-29 01:27 | 56.40229 | -111.53898 | 11917 ft | 381 kts | 203° |
| 2026-04-29 01:27 | 56.37752 | -111.55667 | 12708 ft | 384 kts | 204° |
| 2026-04-29 01:27 | 56.35257 | -111.57449 | 13499 ft | 388 kts | 204° |
| 2026-04-29 01:27 | 56.32732 | -111.59252 | 14232 ft | 393 kts | 204° |
| 2026-04-29 01:28 | 56.30175 | -111.61076 | 14948 ft | 397 kts | 204° |
| 2026-04-29 01:28 | 56.27591 | -111.62917 | 15651 ft | 402 kts | 204° |
| 2026-04-29 01:28 | 56.24972 | -111.64781 | 16396 ft | 406 kts | 204° |
| 2026-04-29 01:28 | 56.22337 | -111.66652 | 17113 ft | 410 kts | 204° |
| 2026-04-29 01:29 | 56.19669 | -111.68546 | 17796 ft | 414 kts | 204° |
| 2026-04-29 01:29 | 56.16974 | -111.70455 | 18495 ft | 419 kts | 204° |
| 2026-04-29 01:29 | 56.14249 | -111.72382 | 19090 ft | 423 kts | 203° |
| 2026-04-29 01:29 | 56.11499 | -111.74324 | 19659 ft | 427 kts | 203° |
| 2026-04-29 01:30 | 56.08717 | -111.76286 | 20228 ft | 432 kts | 203° |
| 2026-04-29 01:30 | 56.05910 | -111.78262 | 20792 ft | 436 kts | 203° |
| 2026-04-29 01:30 | 56.03071 | -111.80257 | 21348 ft | 440 kts | 203° |
| 2026-04-29 01:30 | 56.00205 | -111.82268 | 21884 ft | 444 kts | 203° |
| 2026-04-29 01:31 | 55.97352 | -111.84268 | 22417 ft | 448 kts | 203° |
| 2026-04-29 01:31 | 55.94442 | -111.86303 | 23010 ft | 451 kts | 203° |
| 2026-04-29 01:31 | 55.91507 | -111.88352 | 23529 ft | 455 kts | 203° |
| 2026-04-29 01:31 | 55.88543 | -111.90419 | 23949 ft | 459 kts | 203° |
| 2026-04-29 01:32 | 55.85559 | -111.92497 | 24378 ft | 462 kts | 203° |
| 2026-04-29 01:32 | 55.82551 | -111.94588 | 24760 ft | 466 kts | 203° |
| 2026-04-29 01:32 | 55.79518 | -111.96692 | 25136 ft | 470 kts | 203° |
| 2026-04-29 01:32 | 55.76458 | -111.98811 | 25573 ft | 472 kts | 203° |
| 2026-04-29 01:33 | 55.73390 | -112.00932 | 26018 ft | 474 kts | 203° |
| 2026-04-29 01:33 | 55.70308 | -112.03059 | 26425 ft | 476 kts | 203° |
| 2026-04-29 01:33 | 55.67213 | -112.05192 | 26810 ft | 479 kts | 203° |
| 2026-04-29 01:33 | 55.64096 | -112.07337 | 27193 ft | 481 kts | 203° |
| 2026-04-29 01:34 | 55.60978 | -112.09478 | 27722 ft | 480 kts | 203° |
| 2026-04-29 01:34 | 55.57856 | -112.11618 | 28104 ft | 482 kts | 203° |
| 2026-04-29 01:34 | 55.54718 | -112.13766 | 28432 ft | 485 kts | 203° |
| 2026-04-29 01:34 | 55.51564 | -112.15921 | 28871 ft | 485 kts | 203° |
| 2026-04-29 01:35 | 55.48463 | -112.18036 | 29427 ft | 483 kts | 203° |
| 2026-04-29 01:35 | 55.45340 | -112.20161 | 30031 ft | 480 kts | 203° |
| 2026-04-29 01:35 | 55.42226 | -112.22277 | 30487 ft | 479 kts | 203° |
| 2026-04-29 01:35 | 55.39117 | -112.24388 | 30831 ft | 480 kts | 203° |
| 2026-04-29 01:36 | 55.35993 | -112.26505 | 31162 ft | 481 kts | 203° |
| 2026-04-29 01:36 | 55.32871 | -112.28618 | 31553 ft | 480 kts | 203° |
| 2026-04-29 01:36 | 55.29760 | -112.30718 | 32034 ft | 477 kts | 203° |
| 2026-04-29 01:36 | 55.26644 | -112.32819 | 32109 ft | 482 kts | 203° |
| 2026-04-29 01:37 | 55.20368 | -112.37039 | 32126 ft | 481 kts | 203° |
| 2026-04-29 01:37 | 55.14164 | -112.41190 | 32133 ft | 476 kts | 203° |
| 2026-04-29 01:38 | 55.07969 | -112.45328 | 32116 ft | 477 kts | 202° |
| 2026-04-29 01:38 | 55.01806 | -112.49435 | 32130 ft | 478 kts | 202° |
| 2026-04-29 01:39 | 54.95585 | -112.53566 | 32130 ft | 479 kts | 202° |
| 2026-04-29 01:39 | 54.89353 | -112.57684 | 32133 ft | 479 kts | 202° |
| 2026-04-29 01:40 | 54.83076 | -112.61631 | 32134 ft | 480 kts | 201° |
| 2026-04-29 01:40 | 54.76786 | -112.65497 | 32135 ft | 479 kts | 201° |
| 2026-04-29 01:41 | 54.70498 | -112.69368 | 32141 ft | 479 kts | 201° |
| 2026-04-29 01:41 | 54.64223 | -112.73238 | 32130 ft | 478 kts | 201° |
| 2026-04-29 01:42 | 54.61084 | -112.75173 | 31778 ft | 482 kts | 201° |
| 2026-04-29 01:42 | 54.57930 | -112.77114 | 31113 ft | 480 kts | 201° |
| 2026-04-29 01:42 | 54.54788 | -112.79044 | 30362 ft | 479 kts | 201° |
| 2026-04-29 01:42 | 54.51652 | -112.80967 | 29443 ft | 479 kts | 201° |
| 2026-04-29 01:43 | 54.48518 | -112.82884 | 28545 ft | 478 kts | 201° |
| 2026-04-29 01:43 | 54.45388 | -112.84796 | 27633 ft | 477 kts | 201° |
| 2026-04-29 01:43 | 54.42266 | -112.86700 | 26777 ft | 476 kts | 201° |
| 2026-04-29 01:43 | 54.39169 | -112.88585 | 26150 ft | 469 kts | 201° |
| 2026-04-29 01:44 | 54.36111 | -112.90444 | 25502 ft | 464 kts | 201° |
| 2026-04-29 01:44 | 54.33084 | -112.92281 | 24848 ft | 459 kts | 201° |
| 2026-04-29 01:44 | 54.30132 | -112.94070 | 24214 ft | 454 kts | 201° |
| 2026-04-29 01:44 | 54.27127 | -112.95889 | 23533 ft | 451 kts | 201° |
| 2026-04-29 01:45 | 54.24220 | -112.97646 | 22809 ft | 447 kts | 201° |
| 2026-04-29 01:45 | 54.21299 | -112.99409 | 22158 ft | 442 kts | 201° |
| 2026-04-29 01:45 | 54.18418 | -113.01145 | 21516 ft | 437 kts | 201° |
| 2026-04-29 01:45 | 54.15563 | -113.02862 | 20891 ft | 432 kts | 201° |
| 2026-04-29 01:46 | 54.12741 | -113.04558 | 20261 ft | 428 kts | 201° |
| 2026-04-29 01:46 | 54.09944 | -113.06236 | 19648 ft | 424 kts | 201° |
| 2026-04-29 01:46 | 54.07179 | -113.07893 | 19043 ft | 420 kts | 201° |
| 2026-04-29 01:46 | 54.04435 | -113.09535 | 18440 ft | 416 kts | 201° |
| 2026-04-29 01:47 | 54.01718 | -113.11159 | 17755 ft | 412 kts | 201° |
| 2026-04-29 01:47 | 53.99026 | -113.12767 | 17114 ft | 408 kts | 201° |
| 2026-04-29 01:47 | 53.96354 | -113.14359 | 16475 ft | 405 kts | 201° |
| 2026-04-29 01:47 | 53.93704 | -113.15935 | 15819 ft | 402 kts | 201° |
| 2026-04-29 01:48 | 53.91073 | -113.17501 | 15237 ft | 398 kts | 201° |
| 2026-04-29 01:48 | 53.88467 | -113.19053 | 14657 ft | 395 kts | 201° |
| 2026-04-29 01:48 | 53.85879 | -113.20594 | 14078 ft | 393 kts | 201° |
| 2026-04-29 01:48 | 53.83307 | -113.22124 | 13431 ft | 390 kts | 201° |
| 2026-04-29 01:49 | 53.80754 | -113.23642 | 12814 ft | 388 kts | 201° |
| 2026-04-29 01:49 | 53.78215 | -113.25148 | 12212 ft | 385 kts | 201° |
| 2026-04-29 01:49 | 53.75701 | -113.26638 | 11629 ft | 382 kts | 201° |
| 2026-04-29 01:49 | 53.73229 | -113.28099 | 11400 ft | 369 kts | 201° |
| 2026-04-29 01:50 | 53.70846 | -113.29506 | 11224 ft | 356 kts | 201° |
| 2026-04-29 01:50 | 53.68544 | -113.30865 | 11066 ft | 344 kts | 201° |
| 2026-04-29 01:50 | 53.66321 | -113.32178 | 10917 ft | 333 kts | 202° |
| 2026-04-29 01:50 | 53.64159 | -113.33450 | 10772 ft | 323 kts | 202° |
| 2026-04-29 01:51 | 53.62070 | -113.34679 | 10633 ft | 314 kts | 202° |
| 2026-04-29 01:51 | 53.59994 | -113.35712 | 10419 ft | 310 kts | 191° |
| 2026-04-29 01:51 | 53.57849 | -113.35984 | 10202 ft | 307 kts | 183° |
| 2026-04-29 01:51 | 53.55747 | -113.36078 | 10070 ft | 297 kts | 183° |
| 2026-04-29 01:52 | 53.53718 | -113.36196 | 9795 ft | 285 kts | 184° |
| 2026-04-29 01:52 | 53.51790 | -113.36326 | 9510 ft | 270 kts | 181° |
| 2026-04-29 01:52 | 53.49988 | -113.35998 | 9264 ft | 260 kts | 171° |
| 2026-04-29 01:52 | 53.48213 | -113.35379 | 9012 ft | 261 kts | 169° |
| 2026-04-29 01:53 | 53.46434 | -113.34733 | 8768 ft | 261 kts | 169° |
| 2026-04-29 01:53 | 53.44661 | -113.34112 | 8519 ft | 260 kts | 169° |
| 2026-04-29 01:53 | 53.42904 | -113.33520 | 8375 ft | 254 kts | 169° |
| 2026-04-29 01:53 | 53.41189 | -113.32956 | 8244 ft | 248 kts | 170° |
| 2026-04-29 01:54 | 53.39501 | -113.32408 | 8141 ft | 245 kts | 170° |
| 2026-04-29 01:54 | 53.37820 | -113.31866 | 8051 ft | 247 kts | 171° |
| 2026-04-29 01:54 | 53.36092 | -113.31769 | 7767 ft | 251 kts | 189° |
| 2026-04-29 01:54 | 53.34363 | -113.32169 | 7490 ft | 251 kts | 189° |
| 2026-04-29 01:55 | 53.32641 | -113.32537 | 7191 ft | 246 kts | 188° |
| 2026-04-29 01:55 | 53.30957 | -113.32871 | 6894 ft | 242 kts | 188° |
| 2026-04-29 01:55 | 53.29295 | -113.33185 | 6592 ft | 238 kts | 187° |
| 2026-04-29 01:55 | 53.27663 | -113.33487 | 6279 ft | 234 kts | 187° |
| 2026-04-29 01:56 | 53.26055 | -113.33783 | 6000 ft | 230 kts | 187° |
| 2026-04-29 01:56 | 53.25008 | -113.33976 | 5822 ft | 226 kts | 188° |
| 2026-04-29 01:56 | 53.23066 | -113.34931 | 5450 ft | 216 kts | 211° |
| 2026-04-29 01:56 | 53.21978 | -113.36566 | 5177 ft | 208 kts | 235° |
| 2026-04-29 01:57 | 53.21348 | -113.38700 | 4873 ft | 199 kts | 256° |
| 2026-04-29 01:57 | 53.21193 | -113.40867 | 4719 ft | 181 kts | 274° |
| 2026-04-29 01:57 | 53.21385 | -113.42904 | 4567 ft | 174 kts | 288° |
| 2026-04-29 01:57 | 53.21898 | -113.44668 | 4291 ft | 163 kts | 311° |
| 2026-04-29 01:58 | 53.22371 | -113.45606 | 4165 ft | 156 kts | 311° |
| 2026-04-29 01:58 | 53.23090 | -113.46947 | 3952 ft | 150 kts | 316° |
| 2026-04-29 01:58 | 53.23823 | -113.48192 | 3768 ft | 152 kts | 316° |
| 2026-04-29 01:58 | 53.24572 | -113.49449 | 3561 ft | 153 kts | 317° |
| 2026-04-29 01:59 | 53.25321 | -113.50698 | 3343 ft | 155 kts | 317° |
| 2026-04-29 01:59 | 53.26067 | -113.51997 | 3145 ft | 155 kts | 318° |
| 2026-04-29 01:59 | 53.26834 | -113.53226 | 3020 ft | 150 kts | 318° |
| 2026-04-29 01:59 | 53.27574 | -113.54465 | 2757 ft | 152 kts | 316° |
| 2026-04-29 02:00 | 53.28312 | -113.55711 | 2528 ft | 150 kts | 317° |
| 2026-04-29 02:00 | 53.29041 | -113.56935 | 2391 ft | 142 kts | 316° |
| 2026-04-29 02:00 | 53.29670 | -113.57978 | 2385 ft | 108 kts | 315° |
| 2026-04-29 02:00 | 53.30093 | -113.58692 | 2383 ft | 57 kts | 316° |
| 2026-04-29 02:01 | 53.30290 | -113.58848 | 2384 ft | 22 kts | 357° |
| 2026-04-29 02:01 | 53.30430 | -113.58847 | 2383 ft | 17 kts | 1° |
| 2026-04-29 02:01 | 53.30515 | -113.58843 | 2384 ft | 11 kts | 5° |
| 2026-04-29 02:01 | 53.30592 | -113.58843 | 2383 ft | 11 kts | 349° |
| 2026-04-29 02:02 | 53.30667 | -113.58864 | 2383 ft | 11 kts | 356° |
| 2026-04-29 02:02 | 53.30748 | -113.58876 | 2383 ft | 12 kts | 354° |
| 2026-04-29 02:02 | 53.30835 | -113.58871 | 2383 ft | 13 kts | 27° |
| 2026-04-29 02:02 | 53.30859 | -113.58745 | 2383 ft | 10 kts | 85° |
| 2026-04-29 02:03 | 53.30864 | -113.58639 | 2383 ft | 7 kts | 87° |
| 2026-04-29 02:03 | 53.30865 | -113.58604 | 2383 ft | 1 kts | 86° |
| 2026-04-29 02:03 | 53.30865 | -113.58601 | 2383 ft | 0 kts | 86° |